sensor_id;sensor_type;location;lat;lon;timestamp;P1;durP1;ratioP1;P2;durP2;ratioP2
55218;SDS011;65463;43.864;20.136;2024-03-08T00:00:07;13.20;;;4.53;;
55218;SDS011;65463;43.864;20.136;2024-03-08T00:15:29;13.00;;;5.90;;
55218;SDS011;65463;43.864;20.136;2024-03-08T00:17:57;13.75;;;5.43;;
55218;SDS011;65463;43.864;20.136;2024-03-08T00:20:23;11.95;;;5.47;;
55218;SDS011;65463;43.864;20.136;2024-03-08T00:22:50;11.75;;;4.70;;
55218;SDS011;65463;43.864;20.136;2024-03-08T00:25:16;11.50;;;4.75;;
55218;SDS011;65463;43.864;20.136;2024-03-08T00:27:42;12.65;;;5.43;;
55218;SDS011;65463;43.864;20.136;2024-03-08T00:30:08;12.82;;;5.47;;
55218;SDS011;65463;43.864;20.136;2024-03-08T00:32:34;13.85;;;5.47;;
55218;SDS011;65463;43.864;20.136;2024-03-08T00:35:01;12.73;;;5.00;;
55218;SDS011;65463;43.864;20.136;2024-03-08T00:37:27;14.35;;;5.65;;
55218;SDS011;65463;43.864;20.136;2024-03-08T00:39:52;14.05;;;6.35;;
55218;SDS011;65463;43.864;20.136;2024-03-08T00:42:19;13.35;;;5.80;;
55218;SDS011;65463;43.864;20.136;2024-03-08T00:44:46;15.50;;;5.82;;
55218;SDS011;65463;43.864;20.136;2024-03-08T00:47:13;14.43;;;5.68;;
55218;SDS011;65463;43.864;20.136;2024-03-08T00:49:40;17.05;;;6.40;;
55218;SDS011;65463;43.864;20.136;2024-03-08T00:52:07;15.05;;;5.75;;
55218;SDS011;65463;43.864;20.136;2024-03-08T00:54:33;15.82;;;6.13;;
55218;SDS011;65463;43.864;20.136;2024-03-08T00:57:01;16.52;;;6.22;;
55218;SDS011;65463;43.864;20.136;2024-03-08T00:59:28;16.10;;;6.60;;
55218;SDS011;65463;43.864;20.136;2024-03-08T01:01:54;15.80;;;6.82;;
55218;SDS011;65463;43.864;20.136;2024-03-08T01:04:21;16.50;;;6.10;;
55218;SDS011;65463;43.864;20.136;2024-03-08T01:06:51;15.52;;;6.95;;
55218;SDS011;65463;43.864;20.136;2024-03-08T01:09:17;15.15;;;6.55;;
55218;SDS011;65463;43.864;20.136;2024-03-08T01:11:48;17.35;;;7.10;;
55218;SDS011;65463;43.864;20.136;2024-03-08T01:14:19;21.15;;;7.68;;
55218;SDS011;65463;43.864;20.136;2024-03-08T01:16:47;16.23;;;7.85;;
55218;SDS011;65463;43.864;20.136;2024-03-08T01:19:14;22.60;;;8.32;;
55218;SDS011;65463;43.864;20.136;2024-03-08T01:21:40;15.82;;;5.68;;
55218;SDS011;65463;43.864;20.136;2024-03-08T01:24:07;9.82;;;4.78;;
55218;SDS011;65463;43.864;20.136;2024-03-08T01:26:32;10.10;;;4.45;;
55218;SDS011;65463;43.864;20.136;2024-03-08T01:29:02;8.45;;;3.95;;
55218;SDS011;65463;43.864;20.136;2024-03-08T01:31:28;10.15;;;4.65;;
55218;SDS011;65463;43.864;20.136;2024-03-08T01:33:55;9.20;;;4.07;;
55218;SDS011;65463;43.864;20.136;2024-03-08T01:36:22;12.18;;;5.00;;
55218;SDS011;65463;43.864;20.136;2024-03-08T01:38:48;11.52;;;4.57;;
55218;SDS011;65463;43.864;20.136;2024-03-08T01:41:14;9.18;;;4.68;;
55218;SDS011;65463;43.864;20.136;2024-03-08T01:43:43;10.95;;;4.90;;
55218;SDS011;65463;43.864;20.136;2024-03-08T01:46:09;9.90;;;4.25;;
55218;SDS011;65463;43.864;20.136;2024-03-08T01:48:38;13.50;;;5.65;;
55218;SDS011;65463;43.864;20.136;2024-03-08T01:51:06;13.20;;;5.50;;
55218;SDS011;65463;43.864;20.136;2024-03-08T01:53:32;12.73;;;5.30;;
55218;SDS011;65463;43.864;20.136;2024-03-08T01:55:58;13.60;;;5.55;;
55218;SDS011;65463;43.864;20.136;2024-03-08T01:58:29;12.85;;;5.82;;
55218;SDS011;65463;43.864;20.136;2024-03-08T02:00:58;12.97;;;5.20;;
55218;SDS011;65463;43.864;20.136;2024-03-08T02:03:24;13.77;;;5.65;;
55218;SDS011;65463;43.864;20.136;2024-03-08T02:05:50;16.85;;;5.90;;
55218;SDS011;65463;43.864;20.136;2024-03-08T02:08:16;19.23;;;5.75;;
55218;SDS011;65463;43.864;20.136;2024-03-08T02:10:43;14.55;;;6.43;;
55218;SDS011;65463;43.864;20.136;2024-03-08T02:13:10;13.38;;;5.95;;
55218;SDS011;65463;43.864;20.136;2024-03-08T02:15:55;14.10;;;4.63;;
55218;SDS011;65463;43.864;20.136;2024-03-08T02:18:24;16.67;;;5.28;;
55218;SDS011;65463;43.864;20.136;2024-03-08T02:20:53;18.23;;;6.50;;
55218;SDS011;65463;43.864;20.136;2024-03-08T02:23:20;17.58;;;6.13;;
55218;SDS011;65463;43.864;20.136;2024-03-08T02:25:47;15.52;;;6.65;;
55218;SDS011;65463;43.864;20.136;2024-03-08T02:28:13;18.77;;;7.70;;
55218;SDS011;65463;43.864;20.136;2024-03-08T02:30:39;23.45;;;8.70;;
55218;SDS011;65463;43.864;20.136;2024-03-08T02:33:06;22.27;;;8.35;;
55218;SDS011;65463;43.864;20.136;2024-03-08T02:35:34;32.05;;;9.07;;
55218;SDS011;65463;43.864;20.136;2024-03-08T02:38:01;24.67;;;9.68;;
55218;SDS011;65463;43.864;20.136;2024-03-08T02:40:29;26.10;;;9.07;;
55218;SDS011;65463;43.864;20.136;2024-03-08T02:42:58;28.85;;;10.73;;
55218;SDS011;65463;43.864;20.136;2024-03-08T02:45:24;24.67;;;10.48;;
55218;SDS011;65463;43.864;20.136;2024-03-08T02:47:51;28.60;;;11.55;;
55218;SDS011;65463;43.864;20.136;2024-03-08T02:50:17;26.48;;;10.15;;
55218;SDS011;65463;43.864;20.136;2024-03-08T02:52:43;23.25;;;9.82;;
55218;SDS011;65463;43.864;20.136;2024-03-08T02:55:11;25.80;;;9.65;;
55218;SDS011;65463;43.864;20.136;2024-03-08T02:57:41;23.45;;;9.32;;
55218;SDS011;65463;43.864;20.136;2024-03-08T03:00:08;25.98;;;10.27;;
55218;SDS011;65463;43.864;20.136;2024-03-08T03:02:35;22.50;;;9.15;;
55218;SDS011;65463;43.864;20.136;2024-03-08T03:05:02;27.88;;;11.30;;
55218;SDS011;65463;43.864;20.136;2024-03-08T03:07:34;26.55;;;11.15;;
55218;SDS011;65463;43.864;20.136;2024-03-08T03:10:00;25.55;;;10.65;;
55218;SDS011;65463;43.864;20.136;2024-03-08T03:12:27;26.38;;;11.13;;
55218;SDS011;65463;43.864;20.136;2024-03-08T03:14:54;26.15;;;11.13;;
55218;SDS011;65463;43.864;20.136;2024-03-08T03:17:22;30.05;;;11.63;;
55218;SDS011;65463;43.864;20.136;2024-03-08T03:19:48;24.15;;;9.93;;
55218;SDS011;65463;43.864;20.136;2024-03-08T03:22:14;22.52;;;9.85;;
55218;SDS011;65463;43.864;20.136;2024-03-08T03:24:41;25.10;;;10.52;;
55218;SDS011;65463;43.864;20.136;2024-03-08T03:27:07;27.60;;;10.65;;
55218;SDS011;65463;43.864;20.136;2024-03-08T03:29:36;30.27;;;10.70;;
55218;SDS011;65463;43.864;20.136;2024-03-08T03:32:07;25.70;;;10.05;;
55218;SDS011;65463;43.864;20.136;2024-03-08T03:34:34;24.00;;;9.40;;
55218;SDS011;65463;43.864;20.136;2024-03-08T03:37:01;20.25;;;8.45;;
55218;SDS011;65463;43.864;20.136;2024-03-08T03:39:28;21.92;;;8.55;;
55218;SDS011;65463;43.864;20.136;2024-03-08T03:41:58;27.47;;;9.80;;
55218;SDS011;65463;43.864;20.136;2024-03-08T03:44:24;22.33;;;9.10;;
55218;SDS011;65463;43.864;20.136;2024-03-08T03:46:50;20.77;;;8.98;;
55218;SDS011;65463;43.864;20.136;2024-03-08T03:49:16;19.58;;;8.60;;
55218;SDS011;65463;43.864;20.136;2024-03-08T03:51:42;19.63;;;8.80;;
55218;SDS011;65463;43.864;20.136;2024-03-08T03:54:10;20.25;;;8.13;;
55218;SDS011;65463;43.864;20.136;2024-03-08T03:56:36;20.40;;;8.63;;
55218;SDS011;65463;43.864;20.136;2024-03-08T03:59:02;21.45;;;8.48;;
55218;SDS011;65463;43.864;20.136;2024-03-08T04:01:28;20.27;;;8.25;;
55218;SDS011;65463;43.864;20.136;2024-03-08T04:03:54;19.23;;;8.15;;
55218;SDS011;65463;43.864;20.136;2024-03-08T04:06:20;19.00;;;7.95;;
55218;SDS011;65463;43.864;20.136;2024-03-08T04:08:47;20.77;;;8.20;;
55218;SDS011;65463;43.864;20.136;2024-03-08T04:11:13;19.05;;;7.38;;
55218;SDS011;65463;43.864;20.136;2024-03-08T04:13:41;16.42;;;7.18;;
55218;SDS011;65463;43.864;20.136;2024-03-08T04:16:10;15.73;;;6.80;;
55218;SDS011;65463;43.864;20.136;2024-03-08T04:18:36;13.70;;;6.25;;
55218;SDS011;65463;43.864;20.136;2024-03-08T04:21:03;15.73;;;6.45;;
55218;SDS011;65463;43.864;20.136;2024-03-08T04:23:32;15.45;;;6.13;;
55218;SDS011;65463;43.864;20.136;2024-03-08T04:26:01;13.02;;;5.43;;
55218;SDS011;65463;43.864;20.136;2024-03-08T04:28:27;13.40;;;5.80;;
55218;SDS011;65463;43.864;20.136;2024-03-08T04:30:53;10.95;;;5.22;;
55218;SDS011;65463;43.864;20.136;2024-03-08T04:33:19;12.43;;;5.65;;
55218;SDS011;65463;43.864;20.136;2024-03-08T04:35:46;11.48;;;5.30;;
55218;SDS011;65463;43.864;20.136;2024-03-08T04:38:13;13.48;;;5.53;;
55218;SDS011;65463;43.864;20.136;2024-03-08T04:40:39;13.18;;;5.35;;
55218;SDS011;65463;43.864;20.136;2024-03-08T04:43:05;11.95;;;4.75;;
55218;SDS011;65463;43.864;20.136;2024-03-08T04:45:33;10.77;;;4.53;;
55218;SDS011;65463;43.864;20.136;2024-03-08T04:47:59;10.35;;;4.70;;
55218;SDS011;65463;43.864;20.136;2024-03-08T04:50:25;12.05;;;4.60;;
55218;SDS011;65463;43.864;20.136;2024-03-08T04:52:54;10.55;;;5.20;;
55218;SDS011;65463;43.864;20.136;2024-03-08T04:55:20;10.88;;;5.18;;
55218;SDS011;65463;43.864;20.136;2024-03-08T04:57:47;11.10;;;4.90;;
55218;SDS011;65463;43.864;20.136;2024-03-08T05:00:13;10.52;;;4.78;;
55218;SDS011;65463;43.864;20.136;2024-03-08T05:02:40;10.40;;;4.63;;
55218;SDS011;65463;43.864;20.136;2024-03-08T05:05:07;12.13;;;5.03;;
55218;SDS011;65463;43.864;20.136;2024-03-08T05:07:34;10.32;;;4.70;;
55218;SDS011;65463;43.864;20.136;2024-03-08T05:10:00;12.77;;;5.00;;
55218;SDS011;65463;43.864;20.136;2024-03-08T05:12:27;10.85;;;4.70;;
55218;SDS011;65463;43.864;20.136;2024-03-08T05:14:53;10.52;;;4.35;;
55218;SDS011;65463;43.864;20.136;2024-03-08T05:17:20;10.52;;;4.68;;
55218;SDS011;65463;43.864;20.136;2024-03-08T05:19:49;11.13;;;4.65;;
55218;SDS011;65463;43.864;20.136;2024-03-08T05:22:15;12.25;;;4.80;;
55218;SDS011;65463;43.864;20.136;2024-03-08T05:24:41;9.85;;;4.25;;
55218;SDS011;65463;43.864;20.136;2024-03-08T05:27:08;10.70;;;4.63;;
55218;SDS011;65463;43.864;20.136;2024-03-08T05:29:34;9.20;;;4.43;;
55218;SDS011;65463;43.864;20.136;2024-03-08T05:32:00;9.35;;;4.25;;
55218;SDS011;65463;43.864;20.136;2024-03-08T05:34:27;10.00;;;4.38;;
55218;SDS011;65463;43.864;20.136;2024-03-08T05:36:54;10.07;;;4.63;;
55218;SDS011;65463;43.864;20.136;2024-03-08T05:39:20;9.18;;;4.05;;
55218;SDS011;65463;43.864;20.136;2024-03-08T05:41:45;11.18;;;4.43;;
55218;SDS011;65463;43.864;20.136;2024-03-08T05:44:12;10.20;;;4.38;;
55218;SDS011;65463;43.864;20.136;2024-03-08T05:46:38;10.88;;;5.00;;
55218;SDS011;65463;43.864;20.136;2024-03-08T05:49:05;9.68;;;4.57;;
55218;SDS011;65463;43.864;20.136;2024-03-08T05:51:32;11.82;;;5.32;;
55218;SDS011;65463;43.864;20.136;2024-03-08T05:54:04;10.00;;;4.68;;
55218;SDS011;65463;43.864;20.136;2024-03-08T05:56:36;10.65;;;4.30;;
55218;SDS011;65463;43.864;20.136;2024-03-08T05:59:03;9.05;;;4.63;;
55218;SDS011;65463;43.864;20.136;2024-03-08T06:01:29;9.43;;;4.15;;
55218;SDS011;65463;43.864;20.136;2024-03-08T06:03:56;10.15;;;4.55;;
55218;SDS011;65463;43.864;20.136;2024-03-08T06:06:22;9.95;;;4.57;;
55218;SDS011;65463;43.864;20.136;2024-03-08T06:08:49;10.63;;;4.78;;
55218;SDS011;65463;43.864;20.136;2024-03-08T06:11:16;9.50;;;4.90;;
55218;SDS011;65463;43.864;20.136;2024-03-08T06:13:45;8.52;;;4.55;;
55218;SDS011;65463;43.864;20.136;2024-03-08T06:16:12;10.52;;;4.72;;
55218;SDS011;65463;43.864;20.136;2024-03-08T06:18:38;10.07;;;5.03;;
55218;SDS011;65463;43.864;20.136;2024-03-08T06:21:06;10.15;;;4.75;;
55218;SDS011;65463;43.864;20.136;2024-03-08T06:23:36;9.93;;;4.38;;
55218;SDS011;65463;43.864;20.136;2024-03-08T06:26:03;9.32;;;4.53;;
55218;SDS011;65463;43.864;20.136;2024-03-08T06:28:30;10.27;;;4.20;;
55218;SDS011;65463;43.864;20.136;2024-03-08T06:30:58;11.35;;;4.82;;
55218;SDS011;65463;43.864;20.136;2024-03-08T06:33:24;10.00;;;4.80;;
55218;SDS011;65463;43.864;20.136;2024-03-08T06:35:53;11.32;;;4.85;;
55218;SDS011;65463;43.864;20.136;2024-03-08T06:38:25;11.30;;;5.65;;
55218;SDS011;65463;43.864;20.136;2024-03-08T06:40:51;13.75;;;6.07;;
55218;SDS011;65463;43.864;20.136;2024-03-08T06:43:18;14.27;;;6.13;;
55218;SDS011;65463;43.864;20.136;2024-03-08T06:45:44;12.95;;;6.00;;
55218;SDS011;65463;43.864;20.136;2024-03-08T06:48:19;15.40;;;6.18;;
55218;SDS011;65463;43.864;20.136;2024-03-08T06:50:48;13.25;;;5.50;;
55218;SDS011;65463;43.864;20.136;2024-03-08T06:53:14;13.45;;;6.13;;
55218;SDS011;65463;43.864;20.136;2024-03-08T06:55:40;53.38;;;17.45;;
55218;SDS011;65463;43.864;20.136;2024-03-08T06:58:05;18.55;;;7.32;;
55218;SDS011;65463;43.864;20.136;2024-03-08T07:00:36;17.48;;;7.20;;
55218;SDS011;65463;43.864;20.136;2024-03-08T07:03:02;16.50;;;6.80;;
55218;SDS011;65463;43.864;20.136;2024-03-08T07:05:29;17.60;;;6.10;;
55218;SDS011;65463;43.864;20.136;2024-03-08T07:07:55;13.32;;;6.05;;
55218;SDS011;65463;43.864;20.136;2024-03-08T07:10:22;16.17;;;6.22;;
55218;SDS011;65463;43.864;20.136;2024-03-08T07:12:51;18.70;;;9.13;;
55218;SDS011;65463;43.864;20.136;2024-03-08T07:15:20;16.00;;;6.25;;
55218;SDS011;65463;43.864;20.136;2024-03-08T07:17:48;13.55;;;6.30;;
55218;SDS011;65463;43.864;20.136;2024-03-08T07:20:21;13.30;;;5.50;;
55218;SDS011;65463;43.864;20.136;2024-03-08T07:22:48;13.15;;;5.40;;
55218;SDS011;65463;43.864;20.136;2024-03-08T07:25:17;12.88;;;6.05;;
55218;SDS011;65463;43.864;20.136;2024-03-08T07:27:56;9.40;;;4.97;;
55218;SDS011;65463;43.864;20.136;2024-03-08T07:30:25;14.10;;;6.63;;
55218;SDS011;65463;43.864;20.136;2024-03-08T07:33:10;14.48;;;6.05;;
55218;SDS011;65463;43.864;20.136;2024-03-08T07:35:37;9.32;;;4.63;;
55218;SDS011;65463;43.864;20.136;2024-03-08T07:40:30;9.32;;;4.63;;
55218;SDS011;65463;43.864;20.136;2024-03-08T07:42:57;11.60;;;4.95;;
55218;SDS011;65463;43.864;20.136;2024-03-08T07:45:23;10.60;;;4.90;;
55218;SDS011;65463;43.864;20.136;2024-03-08T07:47:50;11.65;;;5.05;;
55218;SDS011;65463;43.864;20.136;2024-03-08T07:50:16;14.65;;;7.53;;
55218;SDS011;65463;43.864;20.136;2024-03-08T07:52:44;9.43;;;5.03;;
55218;SDS011;65463;43.864;20.136;2024-03-08T07:55:10;18.08;;;7.18;;
55218;SDS011;65463;43.864;20.136;2024-03-08T07:57:36;9.50;;;4.70;;
55218;SDS011;65463;43.864;20.136;2024-03-08T08:00:04;12.23;;;5.15;;
55218;SDS011;65463;43.864;20.136;2024-03-08T08:02:32;15.98;;;5.68;;
55218;SDS011;65463;43.864;20.136;2024-03-08T08:04:59;29.65;;;11.77;;
55218;SDS011;65463;43.864;20.136;2024-03-08T08:07:25;13.95;;;5.53;;
55218;SDS011;65463;43.864;20.136;2024-03-08T08:09:52;12.50;;;5.40;;
55218;SDS011;65463;43.864;20.136;2024-03-08T08:12:18;12.57;;;5.65;;
55218;SDS011;65463;43.864;20.136;2024-03-08T08:14:46;16.35;;;7.50;;
55218;SDS011;65463;43.864;20.136;2024-03-08T08:17:12;12.98;;;6.30;;
55218;SDS011;65463;43.864;20.136;2024-03-08T08:19:40;14.20;;;5.68;;
55218;SDS011;65463;43.864;20.136;2024-03-08T08:22:16;13.32;;;6.30;;
55218;SDS011;65463;43.864;20.136;2024-03-08T08:24:43;13.15;;;6.50;;
55218;SDS011;65463;43.864;20.136;2024-03-08T08:27:09;17.25;;;6.57;;
55218;SDS011;65463;43.864;20.136;2024-03-08T08:29:37;14.85;;;5.60;;
55218;SDS011;65463;43.864;20.136;2024-03-08T08:32:03;11.63;;;5.00;;
55218;SDS011;65463;43.864;20.136;2024-03-08T08:34:29;11.57;;;5.80;;
55218;SDS011;65463;43.864;20.136;2024-03-08T08:36:56;15.98;;;7.57;;
55218;SDS011;65463;43.864;20.136;2024-03-08T08:39:22;11.05;;;5.45;;
55218;SDS011;65463;43.864;20.136;2024-03-08T08:41:51;10.38;;;5.43;;
55218;SDS011;65463;43.864;20.136;2024-03-08T08:44:17;13.25;;;5.97;;
55218;SDS011;65463;43.864;20.136;2024-03-08T08:46:44;13.60;;;5.82;;
55218;SDS011;65463;43.864;20.136;2024-03-08T08:49:11;14.27;;;6.03;;
55218;SDS011;65463;43.864;20.136;2024-03-08T08:51:39;18.67;;;8.38;;
55218;SDS011;65463;43.864;20.136;2024-03-08T08:54:05;8.63;;;3.80;;
55218;SDS011;65463;43.864;20.136;2024-03-08T08:56:32;14.13;;;7.45;;
55218;SDS011;65463;43.864;20.136;2024-03-08T08:58:58;6.80;;;3.83;;
55218;SDS011;65463;43.864;20.136;2024-03-08T09:01:23;9.85;;;3.83;;
55218;SDS011;65463;43.864;20.136;2024-03-08T09:03:49;9.00;;;3.85;;
55218;SDS011;65463;43.864;20.136;2024-03-08T09:06:17;10.38;;;4.47;;
55218;SDS011;65463;43.864;20.136;2024-03-08T09:08:43;7.88;;;3.90;;
55218;SDS011;65463;43.864;20.136;2024-03-08T09:11:11;7.10;;;3.80;;
55218;SDS011;65463;43.864;20.136;2024-03-08T09:13:37;7.13;;;3.42;;
55218;SDS011;65463;43.864;20.136;2024-03-08T09:16:04;6.13;;;3.35;;
55218;SDS011;65463;43.864;20.136;2024-03-08T09:18:31;6.95;;;3.53;;
55218;SDS011;65463;43.864;20.136;2024-03-08T09:20:58;9.10;;;4.10;;
55218;SDS011;65463;43.864;20.136;2024-03-08T09:23:25;8.75;;;3.97;;
55218;SDS011;65463;43.864;20.136;2024-03-08T09:25:55;10.55;;;4.88;;
55218;SDS011;65463;43.864;20.136;2024-03-08T09:28:22;8.73;;;3.92;;
55218;SDS011;65463;43.864;20.136;2024-03-08T09:30:50;11.20;;;3.85;;
55218;SDS011;65463;43.864;20.136;2024-03-08T09:33:16;24.92;;;11.43;;
55218;SDS011;65463;43.864;20.136;2024-03-08T09:35:45;16.08;;;6.55;;
55218;SDS011;65463;43.864;20.136;2024-03-08T09:38:14;5.72;;;2.97;;
55218;SDS011;65463;43.864;20.136;2024-03-08T09:40:45;5.88;;;2.70;;
55218;SDS011;65463;43.864;20.136;2024-03-08T09:43:13;5.97;;;2.92;;
55218;SDS011;65463;43.864;20.136;2024-03-08T09:45:44;6.10;;;2.92;;
55218;SDS011;65463;43.864;20.136;2024-03-08T09:48:11;5.57;;;2.60;;
55218;SDS011;65463;43.864;20.136;2024-03-08T09:50:42;6.25;;;2.80;;
55218;SDS011;65463;43.864;20.136;2024-03-08T09:53:08;5.13;;;2.92;;
55218;SDS011;65463;43.864;20.136;2024-03-08T09:55:37;5.57;;;2.70;;
55218;SDS011;65463;43.864;20.136;2024-03-08T10:00:53;5.03;;;2.60;;
55218;SDS011;65463;43.864;20.136;2024-03-08T10:03:22;5.15;;;2.63;;
55218;SDS011;65463;43.864;20.136;2024-03-08T10:05:53;7.85;;;3.10;;
55218;SDS011;65463;43.864;20.136;2024-03-08T10:08:21;5.88;;;3.17;;
55218;SDS011;65463;43.864;20.136;2024-03-08T10:10:47;5.25;;;2.90;;
55218;SDS011;65463;43.864;20.136;2024-03-08T10:13:14;5.15;;;2.92;;
55218;SDS011;65463;43.864;20.136;2024-03-08T10:15:42;5.72;;;2.97;;
55218;SDS011;65463;43.864;20.136;2024-03-08T10:18:08;5.07;;;3.05;;
55218;SDS011;65463;43.864;20.136;2024-03-08T10:20:35;6.50;;;3.50;;
55218;SDS011;65463;43.864;20.136;2024-03-08T10:23:02;6.45;;;3.53;;
55218;SDS011;65463;43.864;20.136;2024-03-08T10:25:30;6.57;;;3.10;;
55218;SDS011;65463;43.864;20.136;2024-03-08T10:27:57;5.90;;;2.80;;
55218;SDS011;65463;43.864;20.136;2024-03-08T10:30:24;5.80;;;3.00;;
55218;SDS011;65463;43.864;20.136;2024-03-08T10:32:51;17.17;;;7.30;;
55218;SDS011;65463;43.864;20.136;2024-03-08T10:35:18;5.85;;;3.22;;
55218;SDS011;65463;43.864;20.136;2024-03-08T10:37:47;5.80;;;2.88;;
55218;SDS011;65463;43.864;20.136;2024-03-08T10:40:18;4.53;;;2.67;;
55218;SDS011;65463;43.864;20.136;2024-03-08T10:48:43;4.53;;;2.70;;
55218;SDS011;65463;43.864;20.136;2024-03-08T10:50:42;4.78;;;2.63;;
55218;SDS011;65463;43.864;20.136;2024-03-08T10:53:15;4.60;;;2.53;;
55218;SDS011;65463;43.864;20.136;2024-03-08T10:55:43;4.40;;;2.47;;
55218;SDS011;65463;43.864;20.136;2024-03-08T10:58:10;5.38;;;2.65;;
55218;SDS011;65463;43.864;20.136;2024-03-08T11:00:37;6.78;;;3.13;;
55218;SDS011;65463;43.864;20.136;2024-03-08T11:03:03;9.18;;;3.28;;
55218;SDS011;65463;43.864;20.136;2024-03-08T11:08:05;6.18;;;2.70;;
55218;SDS011;65463;43.864;20.136;2024-03-08T11:10:31;5.90;;;2.90;;
55218;SDS011;65463;43.864;20.136;2024-03-08T11:12:57;4.45;;;2.63;;
55218;SDS011;65463;43.864;20.136;2024-03-08T11:15:24;6.57;;;3.20;;
55218;SDS011;65463;43.864;20.136;2024-03-08T11:17:50;7.50;;;3.75;;
55218;SDS011;65463;43.864;20.136;2024-03-08T11:20:20;5.82;;;3.17;;
55218;SDS011;65463;43.864;20.136;2024-03-08T11:22:53;4.90;;;2.80;;
55218;SDS011;65463;43.864;20.136;2024-03-08T11:25:33;4.60;;;2.63;;
55218;SDS011;65463;43.864;20.136;2024-03-08T11:28:22;6.20;;;3.13;;
55218;SDS011;65463;43.864;20.136;2024-03-08T11:33:24;6.40;;;3.08;;
55218;SDS011;65463;43.864;20.136;2024-03-08T11:35:53;5.82;;;2.67;;
55218;SDS011;65463;43.864;20.136;2024-03-08T11:38:23;4.88;;;2.58;;
55218;SDS011;65463;43.864;20.136;2024-03-08T11:40:50;4.30;;;2.63;;
55218;SDS011;65463;43.864;20.136;2024-03-08T11:43:16;5.90;;;2.60;;
55218;SDS011;65463;43.864;20.136;2024-03-08T11:45:43;4.78;;;2.50;;
55218;SDS011;65463;43.864;20.136;2024-03-08T11:48:11;4.63;;;2.40;;
55218;SDS011;65463;43.864;20.136;2024-03-08T11:50:38;7.23;;;3.27;;
55218;SDS011;65463;43.864;20.136;2024-03-08T11:53:04;6.80;;;2.70;;
55218;SDS011;65463;43.864;20.136;2024-03-08T11:55:34;4.95;;;2.80;;
55218;SDS011;65463;43.864;20.136;2024-03-08T11:58:01;5.82;;;3.20;;
55218;SDS011;65463;43.864;20.136;2024-03-08T12:00:27;5.93;;;2.97;;
55218;SDS011;65463;43.864;20.136;2024-03-08T12:03:03;4.85;;;2.60;;
55218;SDS011;65463;43.864;20.136;2024-03-08T12:05:29;6.88;;;2.72;;
55218;SDS011;65463;43.864;20.136;2024-03-08T12:07:59;5.75;;;2.83;;
55218;SDS011;65463;43.864;20.136;2024-03-08T12:10:25;5.85;;;3.08;;
55218;SDS011;65463;43.864;20.136;2024-03-08T12:12:53;5.30;;;2.42;;
55218;SDS011;65463;43.864;20.136;2024-03-08T12:15:20;5.32;;;2.85;;
55218;SDS011;65463;43.864;20.136;2024-03-08T12:17:48;6.43;;;3.28;;
55218;SDS011;65463;43.864;20.136;2024-03-08T12:20:18;4.18;;;2.53;;
55218;SDS011;65463;43.864;20.136;2024-03-08T12:22:46;8.50;;;3.95;;
55218;SDS011;65463;43.864;20.136;2024-03-08T12:25:14;8.85;;;4.45;;
55218;SDS011;65463;43.864;20.136;2024-03-08T12:27:40;5.45;;;3.03;;
55218;SDS011;65463;43.864;20.136;2024-03-08T12:30:22;5.78;;;2.75;;
55218;SDS011;65463;43.864;20.136;2024-03-08T12:32:55;5.00;;;2.53;;
55218;SDS011;65463;43.864;20.136;2024-03-08T12:35:23;5.47;;;2.78;;
55218;SDS011;65463;43.864;20.136;2024-03-08T12:37:51;5.57;;;2.80;;
55218;SDS011;65463;43.864;20.136;2024-03-08T12:40:18;3.45;;;2.05;;
55218;SDS011;65463;43.864;20.136;2024-03-08T12:42:50;4.75;;;2.30;;
55218;SDS011;65463;43.864;20.136;2024-03-08T12:45:16;4.40;;;2.33;;
55218;SDS011;65463;43.864;20.136;2024-03-08T12:47:42;4.75;;;2.78;;
55218;SDS011;65463;43.864;20.136;2024-03-08T12:50:10;5.50;;;2.42;;
55218;SDS011;65463;43.864;20.136;2024-03-08T12:52:36;4.57;;;2.53;;
55218;SDS011;65463;43.864;20.136;2024-03-08T12:55:02;5.03;;;2.65;;
55218;SDS011;65463;43.864;20.136;2024-03-08T12:57:32;7.20;;;2.63;;
55218;SDS011;65463;43.864;20.136;2024-03-08T12:59:59;9.80;;;2.88;;
55218;SDS011;65463;43.864;20.136;2024-03-08T13:02:26;6.07;;;3.08;;
55218;SDS011;65463;43.864;20.136;2024-03-08T13:04:52;5.35;;;2.78;;
55218;SDS011;65463;43.864;20.136;2024-03-08T13:07:25;3.92;;;2.33;;
55218;SDS011;65463;43.864;20.136;2024-03-08T13:09:53;4.57;;;2.40;;
55218;SDS011;65463;43.864;20.136;2024-03-08T13:12:20;4.28;;;2.42;;
55218;SDS011;65463;43.864;20.136;2024-03-08T13:14:46;4.18;;;2.40;;
55218;SDS011;65463;43.864;20.136;2024-03-08T13:17:14;5.05;;;2.50;;
55218;SDS011;65463;43.864;20.136;2024-03-08T13:19:40;5.43;;;2.38;;
55218;SDS011;65463;43.864;20.136;2024-03-08T13:22:07;5.82;;;2.70;;
55218;SDS011;65463;43.864;20.136;2024-03-08T13:24:43;4.72;;;2.50;;
55218;SDS011;65463;43.864;20.136;2024-03-08T13:27:10;3.55;;;2.28;;
55218;SDS011;65463;43.864;20.136;2024-03-08T13:29:47;3.67;;;2.25;;
55218;SDS011;65463;43.864;20.136;2024-03-08T13:32:16;5.60;;;2.92;;
55218;SDS011;65463;43.864;20.136;2024-03-08T13:34:45;5.82;;;2.70;;
55218;SDS011;65463;43.864;20.136;2024-03-08T13:37:19;4.72;;;2.60;;
55218;SDS011;65463;43.864;20.136;2024-03-08T13:39:45;3.70;;;2.40;;
55218;SDS011;65463;43.864;20.136;2024-03-08T13:42:11;7.53;;;3.15;;
55218;SDS011;65463;43.864;20.136;2024-03-08T13:44:47;6.40;;;3.17;;
55218;SDS011;65463;43.864;20.136;2024-03-08T13:47:13;4.93;;;2.92;;
55218;SDS011;65463;43.864;20.136;2024-03-08T13:49:40;5.70;;;2.92;;
55218;SDS011;65463;43.864;20.136;2024-03-08T13:52:06;6.03;;;2.88;;
55218;SDS011;65463;43.864;20.136;2024-03-08T13:54:33;5.50;;;2.88;;
55218;SDS011;65463;43.864;20.136;2024-03-08T13:57:00;5.05;;;2.45;;
55218;SDS011;65463;43.864;20.136;2024-03-08T13:59:29;5.47;;;2.70;;
55218;SDS011;65463;43.864;20.136;2024-03-08T14:01:56;6.47;;;3.08;;
55218;SDS011;65463;43.864;20.136;2024-03-08T14:04:23;5.53;;;3.05;;
55218;SDS011;65463;43.864;20.136;2024-03-08T14:06:51;4.30;;;2.63;;
55218;SDS011;65463;43.864;20.136;2024-03-08T14:09:21;10.82;;;2.90;;
55218;SDS011;65463;43.864;20.136;2024-03-08T14:11:49;4.72;;;2.88;;
55218;SDS011;65463;43.864;20.136;2024-03-08T14:14:19;6.78;;;3.00;;
55218;SDS011;65463;43.864;20.136;2024-03-08T14:16:46;5.43;;;3.22;;
55218;SDS011;65463;43.864;20.136;2024-03-08T14:19:18;4.97;;;2.53;;
55218;SDS011;65463;43.864;20.136;2024-03-08T14:21:44;5.68;;;3.10;;
55218;SDS011;65463;43.864;20.136;2024-03-08T14:24:10;5.22;;;3.03;;
55218;SDS011;65463;43.864;20.136;2024-03-08T14:26:40;5.50;;;3.13;;
55218;SDS011;65463;43.864;20.136;2024-03-08T14:29:07;7.30;;;3.05;;
55218;SDS011;65463;43.864;20.136;2024-03-08T14:31:35;5.40;;;2.83;;
55218;SDS011;65463;43.864;20.136;2024-03-08T14:34:01;5.80;;;3.03;;
55218;SDS011;65463;43.864;20.136;2024-03-08T14:36:33;7.57;;;2.83;;
55218;SDS011;65463;43.864;20.136;2024-03-08T14:39:02;4.78;;;3.00;;
55218;SDS011;65463;43.864;20.136;2024-03-08T14:41:29;5.20;;;3.00;;
55218;SDS011;65463;43.864;20.136;2024-03-08T14:43:56;6.15;;;3.00;;
55218;SDS011;65463;43.864;20.136;2024-03-08T14:46:22;5.78;;;2.78;;
55218;SDS011;65463;43.864;20.136;2024-03-08T14:48:51;5.93;;;3.00;;
55218;SDS011;65463;43.864;20.136;2024-03-08T14:51:18;6.97;;;3.20;;
55218;SDS011;65463;43.864;20.136;2024-03-08T14:53:47;5.50;;;3.15;;
55218;SDS011;65463;43.864;20.136;2024-03-08T14:56:13;4.53;;;2.60;;